Golden Iris — 3FZK4 — position and weather

sailwx.info

Track history (hours):
 
Tides and Currents Weather Stations Pressure Air Temp Water Temp Dewpoint Dewpoint Depression Visibility Wind Speed Wind Dir Waves Ship Positions

Golden Iris

Last reported at 2017-May-26 15:30 UTC. Time now 2017-May-26 16:53 UTC.
Position N 33°03' E 034°23'.

Length 163 m; draft 6 m.

Type: Passenger vessel. MMSI: 371771000.

Date/timePositionNaut miles runAvg speedWind from/ knotsBaromVisibWave heightAir tempDewpointWater temp
2017-May-26 15:30N 33°03' E 034°23'21 8.5
2017-May-26 13:00N 32°56' E 034°47'5 9.4
2017-May-26 12:30N 32°54' E 034°52'5 9.2
2017-May-26 12:00N 32°53' E 034°58'4 7.4
2017-May-26 11:30N 32°51' E 035°01'2 3.0
2017-May-26 11:00N 32°49' E 035°00'0 0.0
2017-May-26 10:30N 32°49' E 035°00'0 0.0
2017-May-26 10:00N 32°49' E 035°00'0 0.0
2017-May-26 09:30N 32°49' E 035°00'0 0.0
2017-May-26 09:00N 32°49' E 035°00'0 0.0
2017-May-26 08:30N 32°49' E 035°00'0 0.0
2017-May-26 08:00N 32°49' E 035°00'0 0.0
2017-May-26 07:30N 32°49' E 035°00'0 0.0
2017-May-26 07:00N 32°49' E 035°00'0 0.0
2017-May-26 06:30N 32°49' E 035°00'0 0.0
2017-May-26 06:00N 32°49' E 035°00'0 0.0
2017-May-26 05:30N 32°49' E 035°00'0 0.0
2017-May-26 05:00N 32°49' E 035°00'0 0.0
2017-May-26 04:30N 32°49' E 035°00'1 2.9
2017-May-26 04:01N 32°50' E 035°01'510.0
2017-May-26 03:30N 32°53' E 034°56'612.7
2017-May-26 03:00N 32°54' E 034°48'2613.9
2017-May-26 01:09N 32°59' E 034°18'313.6
2017-May-26 00:56N 32°59' E 034°15'613.6
2017-May-26 00:29N 33°00' E 034°07'1113.7
2017-May-25 23:41N 33°03' E 033°55'1214.3
2017-May-25 22:51N 33°06' E 033°41'4213.9
2017-May-25 19:53N 33°19' E 032°54'513.6
2017-May-25 19:30N 33°21' E 032°48'713.7
2017-May-25 19:00N 33°23' E 032°40'  
2017-May-21 10:42N 32°54' E 034°46'212.7
2017-May-21 10:30N 32°54' E 034°49'612.1
2017-May-21 10:00N 32°53' E 034°56'510.2
2017-May-21 09:30N 32°50' E 035°01'1 2.6
2017-May-21 08:58N 32°49' E 035°00'0 0.0
2017-May-21 08:28N 32°49' E 035°00'0 0.0
2017-May-21 07:58N 32°49' E 035°00'0 0.0
2017-May-21 07:28N 32°49' E 035°00'0 0.0
2017-May-21 06:55N 32°49' E 035°00'0 0.0
2017-May-21 06:28N 32°49' E 035°00'0 0.0
2017-May-21 05:58N 32°49' E 035°00'0 0.0
2017-May-21 05:28N 32°49' E 035°00'0 0.0
2017-May-21 04:58N 32°49' E 035°00'0 0.0
2017-May-21 04:28N 32°49' E 035°00'0 0.0
2017-May-21 03:58N 32°49' E 035°00'0 0.0
2017-May-21 03:30N 32°49' E 035°00'1 2.9
2017-May-21 03:00N 32°50' E 035°01'1 2.3
2017-May-21 02:31N 32°51' E 035°00'3 6.3
2017-May-21 02:00N 32°53' E 034°57'4 8.8
2017-May-21 01:30N 32°54' E 034°52'510.7
2017-May-21 01:00N 32°55' E 034°46'42 0.8
2017-May-18 21:38N 33°28' E 034°14'1 8.3
2017-May-18 21:30N 33°27' E 034°15'4 7.6
2017-May-18 21:00N 33°23' E 034°16'9 8.0
2017-May-18 19:56N 33°15' E 034°21'4 8.5
2017-May-18 19:29N 33°12' E 034°23'4 8.7
2017-May-18 19:00N 33°08' E 034°25'4 8.7
2017-May-18 18:30N 33°04' E 034°27'4 8.8
2017-May-18 18:00N 33°00' E 034°30'4 8.9
2017-May-18 17:30N 32°59' E 034°35'4 9.0
2017-May-18 17:00N 32°58' E 034°40'4 8.8
2017-May-18 16:30N 32°58' E 034°45'4 8.7
2017-May-18 16:00N 32°57' E 034°50'4 8.1
2017-May-18 15:30N 32°55' E 034°54'4 8.1
2017-May-18 15:00N 32°52' E 034°58'3 3.2
2017-May-18 13:59N 32°49' E 035°00'0 0.0
2017-May-18 13:29N 32°49' E 035°00'0 0.0
2017-May-18 12:59N 32°49' E 035°00'0 0.0
2017-May-18 12:29N 32°49' E 035°00'0 0.0
2017-May-18 11:59N 32°49' E 035°00'0 0.0
2017-May-18 11:26N 32°49' E 035°00'0 0.0
2017-May-18 10:59N 32°49' E 035°00'0 0.0
2017-May-18 10:29N 32°49' E 035°00'0 0.0
2017-May-18 09:59N 32°49' E 035°00'0 0.0
2017-May-18 09:29N 32°49' E 035°00'0 0.0
2017-May-18 08:59N 32°49' E 035°00'0 0.0
2017-May-18 08:26N 32°49' E 035°00'0 0.0
2017-May-18 07:59N 32°49' E 035°00'0 0.0
2017-May-18 07:29N 32°49' E 035°00'0 0.0
2017-May-18 06:59N 32°49' E 035°00'0 0.0
2017-May-18 06:29N 32°49' E 035°00'0 0.0
2017-May-18 05:59N 32°49' E 035°00'0 0.0
2017-May-18 05:29N 32°49' E 035°00'0 0.0
2017-May-18 04:59N 32°49' E 035°00'0 0.0
2017-May-18 04:29N 32°49' E 035°00'1 2.8
2017-May-18 04:00N 32°50' E 035°01'5 9.5
2017-May-18 03:30N 32°52' E 034°56'712.4
2017-May-18 02:59N 32°53' E 034°48'613.6
2017-May-18 02:30N 32°54' E 034°41'713.6
2017-May-18 01:59N 32°55' E 034°32'713.5
2017-May-18 01:30N 32°57' E 034°25'713.5
2017-May-18 01:00N 32°59' E 034°17'713.6
2017-May-18 00:30N 32°60' E 034°09'713.6
2017-May-18 00:00N 33°01' E 034°01'713.4
2017-May-17 23:30N 33°04' E 033°54'713.3
2017-May-17 23:00N 33°08' E 033°47'713.5
2017-May-17 22:30N 33°12' E 033°41'713.5
2017-May-17 22:00N 33°17' E 033°35'713.3
2017-May-17 21:30N 33°21' E 033°29'2113.2
2017-May-17 19:54N 33°35' E 033°10'813.7
2017-May-17 19:18N 33°39' E 033°02'413.7
2017-May-17 19:00N 33°42' E 032°57'813.5
2017-May-17 18:24N 33°46' E 032°49'1813.5
2017-May-17 17:04N 33°56' E 032°31'113.6
2017-May-17 16:58N 33°57' E 032°30'1213.7
2017-May-17 16:05N 34°04' E 032°18'113.7
2017-May-17 15:59N 34°05' E 032°17'8213.9
2017-May-17 10:06N 34°51' E 030°55'114.1
2017-May-17 10:00N 34°52' E 030°54'  
Track history (hours):
 
Tides and Currents Weather Stations Pressure Air Temp Water Temp Dewpoint Dewpoint Depression Visibility Wind Speed Wind Dir Waves Ship Positions

Golden Iris

Last reported at 2017-May-26 15:30 UTC. Time now 2017-May-26 16:53 UTC.
Position N 33°03' E 034°23'.

Length 163 m; draft 6 m.

Type: Passenger vessel. MMSI: 371771000.

Date/timePositionNaut miles runAvg speedWind from/ knotsBaromVisibWave heightAir tempDewpointWater temp
2017-May-26 15:30N 33°03' E 034°23'21 8.5
2017-May-26 13:00N 32°56' E 034°47'5 9.4
2017-May-26 12:30N 32°54' E 034°52'5 9.2
2017-May-26 12:00N 32°53' E 034°58'4 7.4
2017-May-26 11:30N 32°51' E 035°01'2 3.0
2017-May-26 11:00N 32°49' E 035°00'0 0.0
2017-May-26 10:30N 32°49' E 035°00'0 0.0
2017-May-26 10:00N 32°49' E 035°00'0 0.0
2017-May-26 09:30N 32°49' E 035°00'0 0.0
2017-May-26 09:00N 32°49' E 035°00'0 0.0
2017-May-26 08:30N 32°49' E 035°00'0 0.0
2017-May-26 08:00N 32°49' E 035°00'0 0.0
2017-May-26 07:30N 32°49' E 035°00'0 0.0
2017-May-26 07:00N 32°49' E 035°00'0 0.0
2017-May-26 06:30N 32°49' E 035°00'0 0.0
2017-May-26 06:00N 32°49' E 035°00'0 0.0
2017-May-26 05:30N 32°49' E 035°00'0 0.0
2017-May-26 05:00N 32°49' E 035°00'0 0.0
2017-May-26 04:30N 32°49' E 035°00'1 2.9
2017-May-26 04:01N 32°50' E 035°01'510.0
2017-May-26 03:30N 32°53' E 034°56'612.7
2017-May-26 03:00N 32°54' E 034°48'2613.9
2017-May-26 01:09N 32°59' E 034°18'313.6
2017-May-26 00:56N 32°59' E 034°15'613.6
2017-May-26 00:29N 33°00' E 034°07'1113.7
2017-May-25 23:41N 33°03' E 033°55'1214.3
2017-May-25 22:51N 33°06' E 033°41'4213.9
2017-May-25 19:53N 33°19' E 032°54'513.6
2017-May-25 19:30N 33°21' E 032°48'713.7
2017-May-25 19:00N 33°23' E 032°40'  
2017-May-21 10:42N 32°54' E 034°46'212.7
2017-May-21 10:30N 32°54' E 034°49'612.1
2017-May-21 10:00N 32°53' E 034°56'510.2
2017-May-21 09:30N 32°50' E 035°01'1 2.6
2017-May-21 08:58N 32°49' E 035°00'0 0.0
2017-May-21 08:28N 32°49' E 035°00'0 0.0
2017-May-21 07:58N 32°49' E 035°00'0 0.0
2017-May-21 07:28N 32°49' E 035°00'0 0.0
2017-May-21 06:55N 32°49' E 035°00'0 0.0
2017-May-21 06:28N 32°49' E 035°00'0 0.0
2017-May-21 05:58N 32°49' E 035°00'0 0.0
2017-May-21 05:28N 32°49' E 035°00'0 0.0
2017-May-21 04:58N 32°49' E 035°00'0 0.0
2017-May-21 04:28N 32°49' E 035°00'0 0.0
2017-May-21 03:58N 32°49' E 035°00'0 0.0
2017-May-21 03:30N 32°49' E 035°00'1 2.9
2017-May-21 03:00N 32°50' E 035°01'1 2.3
2017-May-21 02:31N 32°51' E 035°00'3 6.3
2017-May-21 02:00N 32°53' E 034°57'4 8.8
2017-May-21 01:30N 32°54' E 034°52'510.7
2017-May-21 01:00N 32°55' E 034°46'42 0.8
2017-May-18 21:38N 33°28' E 034°14'1 8.3
2017-May-18 21:30N 33°27' E 034°15'4 7.6
2017-May-18 21:00N 33°23' E 034°16'9 8.0
2017-May-18 19:56N 33°15' E 034°21'4 8.5
2017-May-18 19:29N 33°12' E 034°23'4 8.7
2017-May-18 19:00N 33°08' E 034°25'4 8.7
2017-May-18 18:30N 33°04' E 034°27'4 8.8
2017-May-18 18:00N 33°00' E 034°30'4 8.9
2017-May-18 17:30N 32°59' E 034°35'4 9.0
2017-May-18 17:00N 32°58' E 034°40'4 8.8
2017-May-18 16:30N 32°58' E 034°45'4 8.7
2017-May-18 16:00N 32°57' E 034°50'4 8.1
2017-May-18 15:30N 32°55' E 034°54'4 8.1
2017-May-18 15:00N 32°52' E 034°58'3 3.2
2017-May-18 13:59N 32°49' E 035°00'0 0.0
2017-May-18 13:29N 32°49' E 035°00'0 0.0
2017-May-18 12:59N 32°49' E 035°00'0 0.0
2017-May-18 12:29N 32°49' E 035°00'0 0.0
2017-May-18 11:59N 32°49' E 035°00'0 0.0
2017-May-18 11:26N 32°49' E 035°00'0 0.0
2017-May-18 10:59N 32°49' E 035°00'0 0.0
2017-May-18 10:29N 32°49' E 035°00'0 0.0
2017-May-18 09:59N 32°49' E 035°00'0 0.0
2017-May-18 09:29N 32°49' E 035°00'0 0.0
2017-May-18 08:59N 32°49' E 035°00'0 0.0
2017-May-18 08:26N 32°49' E 035°00'0 0.0
2017-May-18 07:59N 32°49' E 035°00'0 0.0
2017-May-18 07:29N 32°49' E 035°00'0 0.0
2017-May-18 06:59N 32°49' E 035°00'0 0.0
2017-May-18 06:29N 32°49' E 035°00'0 0.0
2017-May-18 05:59N 32°49' E 035°00'0 0.0
2017-May-18 05:29N 32°49' E 035°00'0 0.0
2017-May-18 04:59N 32°49' E 035°00'0 0.0
2017-May-18 04:29N 32°49' E 035°00'1 2.8
2017-May-18 04:00N 32°50' E 035°01'5 9.5
2017-May-18 03:30N 32°52' E 034°56'712.4
2017-May-18 02:59N 32°53' E 034°48'613.6
2017-May-18 02:30N 32°54' E 034°41'713.6
2017-May-18 01:59N 32°55' E 034°32'713.5
2017-May-18 01:30N 32°57' E 034°25'713.5
2017-May-18 01:00N 32°59' E 034°17'713.6
2017-May-18 00:30N 32°60' E 034°09'713.6
2017-May-18 00:00N 33°01' E 034°01'713.4
2017-May-17 23:30N 33°04' E 033°54'713.3
2017-May-17 23:00N 33°08' E 033°47'713.5
2017-May-17 22:30N 33°12' E 033°41'713.5
2017-May-17 22:00N 33°17' E 033°35'713.3
2017-May-17 21:30N 33°21' E 033°29'2113.2
2017-May-17 19:54N 33°35' E 033°10'813.7
2017-May-17 19:18N 33°39' E 033°02'413.7
2017-May-17 19:00N 33°42' E 032°57'813.5
2017-May-17 18:24N 33°46' E 032°49'1813.5
2017-May-17 17:04N 33°56' E 032°31'113.6
2017-May-17 16:58N 33°57' E 032°30'1213.7
2017-May-17 16:05N 34°04' E 032°18'113.7
2017-May-17 15:59N 34°05' E 032°17'8213.9
2017-May-17 10:06N 34°51' E 030°55'114.1
2017-May-17 10:00N 34°52' E 030°54'  

Dump ship's entire track history